createdAt,value
2022-10-17T00:01:33.810Z,11.09
2022-10-17T00:06:35.583Z,11.10
2022-10-17T00:11:37.173Z,11.07
2022-10-17T00:16:39.187Z,11.07
2022-10-17T00:21:40.897Z,11.08
2022-10-17T00:26:42.662Z,11.11
2022-10-17T00:31:44.200Z,11.16
2022-10-17T00:36:46.231Z,11.15
2022-10-17T00:41:47.789Z,11.19
2022-10-17T00:46:49.248Z,11.26
2022-10-17T00:51:56.015Z,11.37
2022-10-17T00:56:58.125Z,11.46
2022-10-17T01:02:16.743Z,11.48
2022-10-17T01:07:18.653Z,11.46
2022-10-17T01:12:24.927Z,11.44
2022-10-17T01:17:49.820Z,11.46
2022-10-17T01:23:03.191Z,11.54
2022-10-17T01:28:15.288Z,11.57
2022-10-17T01:33:42.220Z,11.63
2022-10-17T01:38:49.540Z,11.68
2022-10-17T01:44:01.640Z,11.72
2022-10-17T01:49:08.077Z,11.78
2022-10-17T01:54:21.791Z,11.78
2022-10-17T01:59:28.844Z,11.92
2022-10-17T02:04:30.933Z,11.96
2022-10-17T02:09:32.861Z,11.99
2022-10-17T02:14:41.814Z,12.00
2022-10-17T02:20:05.693Z,12.09
2022-10-17T02:25:45.632Z,12.02
2022-10-17T02:30:54.697Z,11.89
2022-10-17T02:36:01.469Z,11.83
2022-10-17T02:41:07.277Z,11.68
2022-10-17T02:46:09.251Z,11.61
2022-10-17T02:51:33.221Z,11.57
2022-10-17T02:56:43.257Z,11.53
2022-10-17T03:01:45.027Z,11.55
2022-10-17T03:06:48.279Z,11.50
2022-10-17T03:11:50.919Z,11.44
2022-10-17T03:16:53.945Z,11.36
2022-10-17T03:21:56.462Z,11.39
2022-10-17T03:26:58.111Z,11.37
2022-10-17T03:32:00.307Z,11.33
2022-10-17T03:37:02.091Z,11.29
2022-10-17T03:42:06.073Z,11.24
2022-10-17T03:47:10.449Z,11.18
2022-10-17T03:52:15.347Z,11.13
2022-10-17T03:57:18.793Z,11.08
2022-10-17T04:02:21.237Z,11.00
2022-10-17T04:07:24.528Z,10.92
2022-10-17T04:12:26.715Z,10.86
2022-10-17T04:17:35.775Z,10.88
2022-10-17T04:22:39.959Z,10.96
2022-10-17T04:27:41.547Z,11.07
2022-10-17T04:32:43.645Z,11.17
2022-10-17T04:37:53.964Z,11.27
2022-10-17T04:42:55.921Z,11.33
2022-10-17T04:48:05.590Z,11.45
2022-10-17T04:53:07.163Z,11.54
2022-10-17T04:58:09.410Z,11.55
2022-10-17T05:03:12.613Z,11.59
2022-10-17T05:08:14.419Z,11.61
2022-10-17T05:13:16.475Z,11.60
2022-10-17T05:18:18.028Z,11.56
2022-10-17T05:23:20.132Z,11.63
2022-10-17T05:28:22.926Z,11.73
2022-10-17T05:33:25.359Z,11.82
2022-10-17T05:38:27.771Z,11.83
2022-10-17T05:43:30.201Z,11.81
2022-10-17T05:48:31.953Z,11.80
2022-10-17T05:53:37.066Z,11.92
2022-10-17T05:58:53.213Z,11.99
2022-10-17T06:04:15.507Z,11.98
2022-10-17T06:09:18.006Z,11.97
2022-10-17T06:14:23.131Z,12.14
2022-10-17T06:19:28.343Z,12.29
2022-10-17T06:24:30.144Z,12.46
2022-10-17T06:29:31.994Z,12.63
2022-10-17T06:34:33.827Z,12.76
2022-10-17T06:39:35.898Z,12.98
2022-10-17T06:44:45.821Z,13.12
2022-10-17T06:50:09.075Z,13.24
2022-10-17T06:55:23.394Z,13.33
2022-10-17T07:00:45.743Z,13.44
2022-10-17T07:05:55.389Z,13.50
2022-10-17T07:10:58.217Z,13.74
2022-10-17T07:16:02.046Z,14.01
2022-10-17T07:21:07.804Z,13.97
2022-10-17T07:26:14.947Z,13.96
2022-10-17T07:31:19.272Z,14.16
2022-10-17T07:36:21.644Z,14.58
2022-10-17T07:41:23.603Z,15.88
2022-10-17T07:46:25.993Z,16.54
2022-10-17T07:51:28.102Z,16.00
2022-10-17T07:56:29.636Z,15.54
2022-10-17T08:01:31.656Z,16.46
2022-10-17T08:06:33.119Z,17.09
2022-10-17T08:11:36.326Z,16.60
2022-10-17T08:16:38.252Z,16.22
2022-10-17T08:21:41.312Z,16.19
2022-10-17T08:26:44.040Z,16.41
2022-10-17T08:31:48.978Z,17.01
2022-10-17T08:36:51.704Z,17.30
2022-10-17T08:42:19.573Z,17.47
2022-10-17T08:47:34.173Z,17.59
2022-10-17T08:52:48.203Z,17.71
2022-10-17T08:57:49.881Z,17.75
2022-10-17T09:03:19.783Z,17.96
2022-10-17T09:08:40.024Z,17.95
2022-10-17T09:14:08.371Z,18.14
2022-10-17T09:19:17.274Z,18.46
2022-10-17T09:24:27.785Z,18.51
2022-10-17T09:29:36.044Z,18.62
2022-10-17T09:34:39.520Z,18.68
2022-10-17T09:39:43.390Z,18.77
2022-10-17T09:45:13.104Z,18.91
2022-10-17T09:50:26.611Z,18.82
2022-10-17T09:55:49.760Z,18.72
2022-10-17T10:00:51.412Z,18.54
2022-10-17T10:06:20.026Z,18.45
2022-10-17T10:11:46.733Z,18.50
2022-10-17T10:16:49.990Z,18.55
2022-10-17T10:21:57.144Z,18.65
2022-10-17T10:27:23.037Z,18.72
2022-10-17T10:32:36.966Z,18.82
2022-10-17T10:37:39.777Z,18.81
2022-10-17T10:42:42.180Z,18.73
2022-10-17T10:47:55.752Z,18.79
2022-10-17T10:53:19.940Z,18.90
2022-10-17T10:58:33.625Z,18.84
2022-10-17T11:09:00.615Z,18.61
2022-10-17T11:14:13.747Z,18.59
2022-10-17T11:19:37.039Z,18.61
2022-10-17T11:25:06.337Z,18.49
2022-10-17T11:30:13.927Z,18.18
2022-10-17T11:35:15.396Z,18.04
2022-10-17T11:40:30.409Z,17.87
2022-10-17T11:45:39.234Z,17.61
2022-10-17T11:58:23.133Z,17.10
2022-10-17T12:03:50.201Z,16.95
2022-10-17T12:09:21.075Z,16.88
2022-10-17T12:14:47.007Z,17.01
2022-10-17T12:19:48.708Z,16.92
2022-10-17T12:25:30.550Z,16.91
2022-10-17T12:30:34.380Z,16.77
2022-10-17T12:35:37.931Z,16.77
2022-10-17T12:40:45.123Z,16.67
2022-10-17T12:45:58.038Z,16.59
2022-10-17T12:51:36.482Z,16.51
2022-10-17T12:56:41.163Z,16.43
2022-10-17T13:01:47.390Z,16.35
2022-10-17T13:06:54.391Z,16.35
2022-10-17T13:12:00.947Z,16.31
2022-10-17T13:18:01.999Z,16.35
2022-10-17T13:29:44.914Z,16.23
2022-10-17T13:36:07.323Z,16.23
2022-10-17T13:46:50.082Z,16.27
2022-10-17T13:52:06.547Z,16.21
2022-10-17T13:57:25.925Z,16.23
2022-10-17T14:02:30.305Z,16.20
2022-10-17T14:08:09.505Z,16.14
2022-10-17T14:13:04.665Z,16.11
2022-10-17T14:18:08.919Z,16.13
2022-10-17T14:23:30.552Z,16.05
2022-10-17T14:28:32.274Z,15.99
2022-10-17T14:33:37.362Z,15.97
2022-10-17T14:38:47.663Z,15.98
2022-10-17T14:43:58.004Z,15.93
2022-10-17T14:49:07.981Z,15.89
2022-10-17T14:54:25.727Z,15.94
2022-10-17T14:59:53.847Z,15.97
2022-10-17T15:04:48.741Z,16.00
2022-10-17T15:09:52.667Z,16.05
2022-10-17T15:14:54.987Z,16.05
2022-10-17T15:19:57.565Z,16.09
2022-10-17T15:24:59.028Z,16.03
2022-10-17T15:30:01.578Z,16.06
2022-10-17T15:35:04.317Z,16.01
2022-10-17T15:40:06.761Z,16.02
2022-10-17T15:45:11.240Z,16.03
2022-10-17T15:50:17.124Z,16.03
2022-10-17T15:55:19.918Z,16.01
2022-10-17T16:00:25.229Z,16.01
2022-10-17T16:05:26.888Z,15.98
2022-10-17T16:10:28.423Z,15.94
2022-10-17T16:15:30.042Z,15.92
2022-10-17T16:20:32.018Z,15.94
2022-10-17T16:25:34.293Z,15.95
2022-10-17T16:30:42.510Z,15.83
2022-10-17T16:35:45.980Z,15.62
2022-10-17T16:40:47.458Z,15.50
2022-10-17T16:45:50.124Z,15.35
2022-10-17T16:50:51.747Z,15.23
2022-10-17T16:56:04.692Z,15.09
2022-10-17T17:01:09.839Z,14.99
2022-10-17T17:06:16.763Z,14.99
2022-10-17T17:11:20.537Z,14.91
2022-10-17T17:16:23.776Z,14.84
2022-10-17T17:21:26.929Z,14.81
2022-10-17T17:26:31.218Z,14.82
2022-10-17T17:31:34.398Z,14.82
2022-10-17T17:36:38.301Z,14.76
2022-10-17T17:41:41.307Z,14.77
2022-10-17T17:46:46.988Z,14.75
2022-10-17T17:51:48.595Z,14.69
2022-10-17T17:56:52.603Z,14.62
2022-10-17T18:01:54.225Z,14.52
2022-10-17T18:12:11.254Z,14.30
2022-10-17T18:17:12.755Z,14.26
2022-10-17T18:22:14.662Z,14.19
2022-10-17T18:27:16.750Z,14.17
2022-10-17T18:32:18.323Z,14.08
2022-10-17T18:37:19.941Z,14.06
2022-10-17T18:42:21.512Z,14.00
2022-10-17T18:47:23.273Z,13.94
2022-10-17T18:52:28.613Z,13.93
2022-10-17T18:57:30.376Z,13.86
2022-10-17T19:02:35.567Z,13.84
2022-10-17T19:07:39.556Z,13.80
2022-10-17T19:12:41.259Z,13.76
2022-10-17T19:17:43.245Z,13.74
2022-10-17T19:22:45.046Z,13.71
2022-10-17T19:27:53.683Z,13.72
2022-10-17T19:32:55.257Z,13.70
2022-10-17T19:37:57.190Z,13.70
2022-10-17T19:42:58.938Z,13.67
2022-10-17T19:48:00.498Z,13.66
2022-10-17T19:53:02.045Z,13.61
2022-10-17T19:58:03.591Z,13.61
2022-10-17T20:03:06.955Z,13.60
2022-10-17T20:08:08.727Z,13.61
2022-10-17T20:13:13.649Z,13.60
2022-10-17T20:18:15.160Z,13.57
2022-10-17T20:23:16.912Z,13.55
2022-10-17T20:28:18.546Z,13.55
2022-10-17T20:33:20.538Z,13.58
2022-10-17T20:38:22.168Z,13.59
2022-10-17T20:43:23.774Z,13.56
2022-10-17T20:48:30.690Z,13.54
2022-10-17T20:53:37.266Z,13.56
2022-10-17T20:58:39.479Z,13.55
2022-10-17T21:03:44.019Z,13.49
2022-10-17T21:08:48.821Z,13.45
2022-10-17T21:14:17.049Z,13.43
2022-10-17T21:19:18.786Z,13.39
2022-10-17T21:24:20.772Z,13.37
2022-10-17T21:29:23.434Z,13.34
2022-10-17T21:34:25.165Z,13.30
2022-10-17T21:39:28.248Z,13.27
2022-10-17T21:44:32.820Z,13.25
2022-10-17T21:49:34.328Z,13.27
2022-10-17T21:54:36.025Z,13.25
2022-10-17T21:59:37.654Z,13.26
2022-10-17T22:04:39.328Z,13.26
2022-10-17T22:09:42.721Z,13.32
2022-10-17T22:14:44.421Z,13.33
2022-10-17T22:19:47.319Z,13.32
2022-10-17T22:24:48.932Z,13.29
2022-10-17T22:29:56.907Z,13.33
2022-10-17T22:35:04.846Z,13.35
2022-10-17T22:40:07.478Z,13.33
2022-10-17T22:45:09.479Z,13.33
2022-10-17T22:50:18.103Z,13.35
2022-10-17T22:55:20.113Z,13.38
2022-10-17T23:00:21.812Z,13.33
2022-10-17T23:05:23.570Z,13.36
2022-10-17T23:10:25.154Z,13.36
2022-10-17T23:15:26.755Z,13.37
2022-10-17T23:20:29.371Z,13.33
2022-10-17T23:25:32.772Z,13.30
2022-10-17T23:30:34.622Z,13.32
2022-10-17T23:35:36.186Z,13.32
2022-10-17T23:40:38.006Z,13.29
2022-10-17T23:45:49.793Z,13.25
2022-10-17T23:50:51.293Z,13.21
2022-10-17T23:55:53.264Z,13.19
